createdAt,value
2018-03-30T00:03:53.201Z,20.20
2018-03-30T00:08:56.139Z,20.30
2018-03-30T00:13:58.939Z,20.30
2018-03-30T00:19:01.919Z,20.30
2018-03-30T00:24:04.854Z,20.30
2018-03-30T00:29:08.389Z,20.30
2018-03-30T00:34:11.012Z,20.30
2018-03-30T00:39:14.253Z,20.30
2018-03-30T00:44:16.822Z,20.30
2018-03-30T00:49:19.355Z,20.30
2018-03-30T00:54:21.920Z,20.30
2018-03-30T00:59:24.542Z,20.30
2018-03-30T01:04:27.555Z,20.30
2018-03-30T01:09:30.452Z,20.40
2018-03-30T01:14:32.999Z,20.40
2018-03-30T01:19:35.868Z,20.40
2018-03-30T01:24:38.400Z,20.40
2018-03-30T01:29:40.927Z,20.40
2018-03-30T01:34:44.349Z,20.40
2018-03-30T01:39:46.914Z,20.40
2018-03-30T01:44:49.707Z,20.40
2018-03-30T01:49:52.234Z,20.40
2018-03-30T01:54:55.545Z,20.30
2018-03-30T01:59:58.587Z,20.40
2018-03-30T02:05:01.095Z,20.40
2018-03-30T02:10:03.928Z,20.40
2018-03-30T02:15:06.549Z,20.40
2018-03-30T02:20:10.438Z,20.40
2018-03-30T02:25:12.986Z,20.30
2018-03-30T02:30:15.718Z,20.40
2018-03-30T02:35:18.280Z,20.40
2018-03-30T02:40:20.820Z,20.40
2018-03-30T02:45:23.560Z,20.40
2018-03-30T02:50:27.045Z,20.30
2018-03-30T02:55:29.641Z,20.30
2018-03-30T03:00:32.244Z,20.30
2018-03-30T03:05:35.055Z,20.30
2018-03-30T03:10:37.596Z,20.30
2018-03-30T03:15:40.143Z,20.30
2018-03-30T03:20:43.565Z,20.30
2018-03-30T03:25:46.336Z,20.30
2018-03-30T03:30:49.052Z,20.30
2018-03-30T03:35:51.611Z,20.30
2018-03-30T03:40:54.344Z,20.30
2018-03-30T03:45:58.019Z,20.30
2018-03-30T03:51:00.631Z,20.30
2018-03-30T03:56:03.368Z,20.30
2018-03-30T04:01:06.078Z,20.30
2018-03-30T04:06:08.769Z,20.30
2018-03-30T04:11:11.307Z,20.30
2018-03-30T04:16:13.930Z,20.30
2018-03-30T04:21:17.130Z,20.30
2018-03-30T04:26:21.222Z,20.30
2018-03-30T04:31:23.754Z,20.30
2018-03-30T04:36:26.331Z,20.30
2018-03-30T04:41:28.907Z,20.30
2018-03-30T04:46:31.585Z,20.30
2018-03-30T04:51:34.369Z,20.30
2018-03-30T04:56:37.753Z,20.30
2018-03-30T05:01:41.404Z,20.30
2018-03-30T05:06:44.420Z,20.30
2018-03-30T05:11:47.407Z,20.30
2018-03-30T05:16:50.713Z,20.30
2018-03-30T05:21:54.056Z,20.30
2018-03-30T05:26:56.595Z,20.30
2018-03-30T05:31:59.173Z,20.30
2018-03-30T05:37:02.010Z,20.40
2018-03-30T05:42:04.629Z,20.40
2018-03-30T05:47:07.723Z,20.40
2018-03-30T05:52:11.031Z,20.50
2018-03-30T05:57:13.824Z,20.50
2018-03-30T06:02:16.956Z,20.60
2018-03-30T06:07:20.311Z,20.60
2018-03-30T06:12:22.868Z,20.70
2018-03-30T06:17:26.260Z,20.80
2018-03-30T06:22:29.592Z,21.20
2018-03-30T06:27:32.331Z,21.10
2018-03-30T06:32:34.880Z,21.20
2018-03-30T06:37:37.623Z,21.20
2018-03-30T06:42:41.049Z,21.20
2018-03-30T06:47:43.651Z,21.20
2018-03-30T06:52:46.238Z,21.20
2018-03-30T06:57:48.948Z,21.20
2018-03-30T07:02:51.515Z,21.30
2018-03-30T07:07:54.987Z,21.40
2018-03-30T07:12:57.503Z,21.40
2018-03-30T07:18:00.005Z,21.30
2018-03-30T07:23:03.282Z,21.30
2018-03-30T07:28:06.615Z,21.40
2018-03-30T07:33:09.462Z,21.40
2018-03-30T07:38:12.192Z,21.40
2018-03-30T07:43:15.509Z,21.50
2018-03-30T07:48:18.034Z,21.50
2018-03-30T07:53:20.605Z,21.50
2018-03-30T07:58:23.270Z,21.50
2018-03-30T08:03:26.123Z,21.50
2018-03-30T08:08:28.765Z,21.50
2018-03-30T08:13:31.355Z,21.50
2018-03-30T08:18:34.067Z,21.50
2018-03-30T08:23:36.764Z,21.50
2018-03-30T08:28:39.367Z,21.60
2018-03-30T08:33:41.958Z,21.60
2018-03-30T08:38:45.364Z,21.50
2018-03-30T08:43:47.908Z,21.50
2018-03-30T08:48:51.058Z,21.40
2018-03-30T08:53:53.632Z,21.50
2018-03-30T08:58:56.318Z,21.50
2018-03-30T09:03:58.968Z,21.50
2018-03-30T09:09:01.627Z,21.50
2018-03-30T09:14:04.564Z,21.50
2018-03-30T09:19:07.147Z,21.60
2018-03-30T09:24:11.203Z,21.50
2018-03-30T09:29:13.767Z,21.50
2018-03-30T09:34:16.331Z,20.70
2018-03-30T09:39:19.711Z,20.00
2018-03-30T09:44:22.255Z,19.40
2018-03-30T09:49:24.763Z,19.40
2018-03-30T09:54:27.515Z,18.90
2018-03-30T09:59:30.393Z,19.00
2018-03-30T10:04:32.984Z,19.00
2018-03-30T10:09:35.678Z,18.80
2018-03-30T10:14:39.071Z,18.80
2018-03-30T10:19:41.792Z,18.80
2018-03-30T10:24:44.421Z,18.20
2018-03-30T10:29:47.215Z,18.70
2018-03-30T10:34:49.915Z,19.80
2018-03-30T10:39:52.605Z,20.20
2018-03-30T10:44:56.092Z,20.40
2018-03-30T10:49:59.200Z,20.50
2018-03-30T10:55:02.599Z,20.60
2018-03-30T11:00:05.331Z,20.60
2018-03-30T11:05:07.884Z,20.70
2018-03-30T11:10:10.848Z,20.80
2018-03-30T11:15:13.412Z,20.80
2018-03-30T11:20:16.214Z,20.80
2018-03-30T11:25:18.906Z,20.80
2018-03-30T11:30:22.280Z,20.90
2018-03-30T11:35:25.661Z,20.80
2018-03-30T11:40:28.238Z,20.80
2018-03-30T11:45:31.028Z,20.90
2018-03-30T11:50:34.523Z,20.90
2018-03-30T11:55:37.335Z,20.90
2018-03-30T12:00:41.013Z,21.00
2018-03-30T12:05:43.652Z,21.00
2018-03-30T12:10:47.141Z,20.90
2018-03-30T12:15:49.818Z,20.90
2018-03-30T12:20:52.497Z,20.70
2018-03-30T12:25:55.471Z,20.90
2018-03-30T12:30:59.904Z,20.50
2018-03-30T12:36:02.604Z,20.50
2018-03-30T12:41:05.186Z,20.40
2018-03-30T12:46:08.673Z,20.50
2018-03-30T12:51:11.527Z,20.50
2018-03-30T12:56:14.828Z,20.40
2018-03-30T13:01:18.124Z,20.30
2018-03-30T13:06:21.632Z,20.20
2018-03-30T13:11:24.137Z,20.10
2018-03-30T13:16:26.639Z,20.10
2018-03-30T13:21:30.028Z,20.20
2018-03-30T13:26:32.875Z,20.20
2018-03-30T13:31:36.252Z,20.10
2018-03-30T13:36:39.275Z,20.10
2018-03-30T13:41:42.019Z,20.10
2018-03-30T13:46:44.809Z,20.10
2018-03-30T13:51:51.910Z,20.00
2018-03-30T13:56:55.299Z,20.00
2018-03-30T14:02:06.647Z,20.00
2018-03-30T14:12:40.715Z,20.10
2018-03-30T14:17:44.209Z,20.00
2018-03-30T14:22:53.834Z,20.10
2018-03-30T14:28:12.611Z,20.00
2018-03-30T14:33:18.703Z,20.00
2018-03-30T14:38:38.833Z,20.00
2018-03-30T14:43:44.320Z,20.00
2018-03-30T14:48:49.043Z,19.90
2018-03-30T14:53:54.251Z,20.00
2018-03-30T14:59:07.744Z,20.30
2018-03-30T15:04:12.412Z,20.40
2018-03-30T15:09:21.642Z,20.50
2018-03-30T15:14:26.251Z,20.50
2018-03-30T15:25:14.952Z,20.60
2018-03-30T15:30:24.150Z,20.70
2018-03-30T15:35:26.710Z,20.60
2018-03-30T15:40:32.381Z,20.70
2018-03-30T15:45:37.904Z,20.70
2018-03-30T15:50:40.640Z,20.70
2018-03-30T15:55:43.284Z,20.70
2018-03-30T16:00:45.838Z,20.70
2018-03-30T16:05:48.530Z,20.70
2018-03-30T16:10:54.625Z,20.70
2018-03-30T16:15:57.401Z,20.80
2018-03-30T16:20:59.621Z,20.70
2018-03-30T16:26:01.662Z,20.80
2018-03-30T16:31:03.731Z,20.60
2018-03-30T16:36:05.771Z,20.50
2018-03-30T16:41:07.779Z,20.50
2018-03-30T16:46:09.845Z,20.40
2018-03-30T16:51:11.873Z,20.40
2018-03-30T16:56:14.767Z,20.40
2018-03-30T17:01:16.843Z,20.40
2018-03-30T17:06:18.906Z,20.40
2018-03-30T17:11:21.018Z,20.40
2018-03-30T17:16:23.089Z,20.30
2018-03-30T17:21:25.206Z,20.30
2018-03-30T17:26:27.236Z,20.60
2018-03-30T17:31:29.306Z,20.80
2018-03-30T17:36:31.355Z,20.90
2018-03-30T17:41:33.420Z,21.00
2018-03-30T17:46:35.527Z,21.00
2018-03-30T17:51:37.634Z,21.00
2018-03-30T17:56:39.761Z,21.00
2018-03-30T18:01:42.768Z,21.00
2018-03-30T18:06:44.861Z,21.00
2018-03-30T18:11:47.676Z,21.00
2018-03-30T18:16:49.721Z,21.00
2018-03-30T18:21:51.750Z,21.00
2018-03-30T18:26:53.758Z,20.90
2018-03-30T18:31:55.921Z,20.90
2018-03-30T18:36:58.149Z,21.00
2018-03-30T18:42:00.196Z,21.00
2018-03-30T18:47:02.335Z,21.00
2018-03-30T18:52:04.450Z,21.00
2018-03-30T18:57:06.542Z,21.00
2018-03-30T19:02:08.599Z,21.00
2018-03-30T19:07:10.819Z,21.00
2018-03-30T19:12:12.968Z,21.00
2018-03-30T19:17:15.030Z,21.00
2018-03-30T19:22:17.427Z,21.00
2018-03-30T19:27:20.276Z,21.00
2018-03-30T19:32:23.226Z,21.00
2018-03-30T19:37:25.332Z,21.00
2018-03-30T19:42:27.412Z,21.00
2018-03-30T19:47:29.505Z,21.10
2018-03-30T19:52:31.621Z,21.10
2018-03-30T19:57:33.706Z,21.10
2018-03-30T20:02:35.770Z,21.10
2018-03-30T20:07:37.838Z,21.20
2018-03-30T20:12:39.897Z,21.20
2018-03-30T20:17:42.181Z,21.20
2018-03-30T20:22:46.451Z,21.20
2018-03-30T20:27:48.499Z,21.20
2018-03-30T20:32:51.400Z,21.30
2018-03-30T20:37:54.389Z,21.20
2018-03-30T20:42:57.316Z,21.20
2018-03-30T20:47:59.361Z,21.20
2018-03-30T20:53:01.435Z,21.10
2018-03-30T20:58:04.605Z,21.20
2018-03-30T21:03:07.310Z,21.20
2018-03-30T21:08:09.635Z,21.20
2018-03-30T21:13:11.772Z,21.10
2018-03-30T21:18:13.941Z,21.20
2018-03-30T21:23:16.027Z,21.10
2018-03-30T21:28:18.113Z,21.10
2018-03-30T21:33:20.219Z,21.20
2018-03-30T21:38:22.511Z,21.20
2018-03-30T21:43:24.662Z,21.20
2018-03-30T21:48:26.731Z,21.20
2018-03-30T21:53:28.837Z,21.10
2018-03-30T21:58:30.890Z,21.20
2018-03-30T22:03:33.039Z,21.20
2018-03-30T22:08:35.060Z,21.10
2018-03-30T22:13:37.295Z,21.20
2018-03-30T22:18:39.364Z,21.10
2018-03-30T22:23:41.406Z,21.00
2018-03-30T22:28:43.535Z,21.00
2018-03-30T22:33:45.633Z,21.00
2018-03-30T22:38:47.858Z,21.00
2018-03-30T22:43:50.074Z,21.00
2018-03-30T22:48:52.912Z,20.80
2018-03-30T22:53:54.968Z,20.80
2018-03-30T22:58:57.207Z,20.80
2018-03-30T23:03:59.262Z,20.70
2018-03-30T23:09:01.370Z,20.70
2018-03-30T23:14:03.409Z,20.70
2018-03-30T23:19:05.576Z,20.70
2018-03-30T23:24:07.626Z,20.70
2018-03-30T23:29:10.357Z,20.60
2018-03-30T23:34:12.540Z,20.60
2018-03-30T23:39:15.358Z,20.60
2018-03-30T23:44:17.460Z,20.60
2018-03-30T23:49:19.647Z,20.60
2018-03-30T23:54:21.818Z,20.60
2018-03-30T23:59:24.576Z,20.60
